sensor_id;sensor_type;location;lat;lon;timestamp;temperature;humidity
63313;DHT22;49442;45.640;13.812;2023-06-22T00:00:52;23.80;99.90
63313;DHT22;49442;45.640;13.812;2023-06-22T00:03:18;23.90;99.90
63313;DHT22;49442;45.640;13.812;2023-06-22T00:05:45;23.70;99.90
63313;DHT22;49442;45.640;13.812;2023-06-22T00:08:11;23.70;99.90
63313;DHT22;49442;45.640;13.812;2023-06-22T00:10:37;23.70;99.90
63313;DHT22;49442;45.640;13.812;2023-06-22T00:13:03;23.60;99.90
63313;DHT22;49442;45.640;13.812;2023-06-22T00:15:29;23.60;99.90
63313;DHT22;49442;45.640;13.812;2023-06-22T00:17:55;23.60;99.90
63313;DHT22;49442;45.640;13.812;2023-06-22T00:20:23;23.70;99.90
63313;DHT22;49442;45.640;13.812;2023-06-22T00:22:53;23.70;99.90
63313;DHT22;49442;45.640;13.812;2023-06-22T00:25:19;23.70;99.90
63313;DHT22;49442;45.640;13.812;2023-06-22T00:27:45;23.70;99.90
63313;DHT22;49442;45.640;13.812;2023-06-22T00:30:11;23.70;99.90
63313;DHT22;49442;45.640;13.812;2023-06-22T00:32:36;23.80;99.90
63313;DHT22;49442;45.640;13.812;2023-06-22T00:35:02;23.80;99.90
63313;DHT22;49442;45.640;13.812;2023-06-22T00:37:28;23.80;99.90
63313;DHT22;49442;45.640;13.812;2023-06-22T00:39:55;23.80;99.90
63313;DHT22;49442;45.640;13.812;2023-06-22T00:42:22;23.80;99.90
63313;DHT22;49442;45.640;13.812;2023-06-22T00:44:48;23.90;99.90
63313;DHT22;49442;45.640;13.812;2023-06-22T00:47:16;23.80;99.90
63313;DHT22;49442;45.640;13.812;2023-06-22T00:49:43;23.80;99.90
63313;DHT22;49442;45.640;13.812;2023-06-22T00:52:09;23.80;99.90
63313;DHT22;49442;45.640;13.812;2023-06-22T00:54:43;23.80;99.90
63313;DHT22;49442;45.640;13.812;2023-06-22T00:57:15;23.80;99.90
63313;DHT22;49442;45.640;13.812;2023-06-22T00:59:45;23.80;99.90
63313;DHT22;49442;45.640;13.812;2023-06-22T01:02:11;23.70;99.90
63313;DHT22;49442;45.640;13.812;2023-06-22T01:04:38;23.80;99.90
63313;DHT22;49442;45.640;13.812;2023-06-22T01:07:28;23.70;99.90
63313;DHT22;49442;45.640;13.812;2023-06-22T01:12:45;23.70;99.90
63313;DHT22;49442;45.640;13.812;2023-06-22T01:15:18;23.80;99.90
63313;DHT22;49442;45.640;13.812;2023-06-22T01:17:47;23.70;99.90
63313;DHT22;49442;45.640;13.812;2023-06-22T01:20:15;23.80;99.90
63313;DHT22;49442;45.640;13.812;2023-06-22T01:25:53;23.70;99.90
63313;DHT22;49442;45.640;13.812;2023-06-22T01:31:08;23.60;99.90
63313;DHT22;49442;45.640;13.812;2023-06-22T01:33:41;23.60;99.90
63313;DHT22;49442;45.640;13.812;2023-06-22T01:36:07;23.60;99.90
63313;DHT22;49442;45.640;13.812;2023-06-22T01:38:34;23.70;99.90
63313;DHT22;49442;45.640;13.812;2023-06-22T01:41:01;23.70;99.90
63313;DHT22;49442;45.640;13.812;2023-06-22T01:43:28;23.70;99.90
63313;DHT22;49442;45.640;13.812;2023-06-22T01:45:55;23.60;99.90
63313;DHT22;49442;45.640;13.812;2023-06-22T01:48:22;23.60;99.90
63313;DHT22;49442;45.640;13.812;2023-06-22T01:50:48;23.60;99.90
63313;DHT22;49442;45.640;13.812;2023-06-22T01:53:14;23.60;99.90
63313;DHT22;49442;45.640;13.812;2023-06-22T01:55:40;23.70;99.90
63313;DHT22;49442;45.640;13.812;2023-06-22T01:58:06;23.60;99.90
63313;DHT22;49442;45.640;13.812;2023-06-22T02:00:33;23.60;99.90
63313;DHT22;49442;45.640;13.812;2023-06-22T02:03:05;23.70;99.90
63313;DHT22;49442;45.640;13.812;2023-06-22T02:05:41;23.70;99.90
63313;DHT22;49442;45.640;13.812;2023-06-22T02:08:19;23.70;99.90
63313;DHT22;49442;45.640;13.812;2023-06-22T02:10:47;23.70;99.90
63313;DHT22;49442;45.640;13.812;2023-06-22T02:13:14;23.60;99.90
63313;DHT22;49442;45.640;13.812;2023-06-22T02:15:41;23.50;99.90
63313;DHT22;49442;45.640;13.812;2023-06-22T02:18:07;23.40;99.90
63313;DHT22;49442;45.640;13.812;2023-06-22T02:20:35;23.40;99.90
63313;DHT22;49442;45.640;13.812;2023-06-22T02:23:01;23.40;99.90
63313;DHT22;49442;45.640;13.812;2023-06-22T02:25:27;23.30;99.90
63313;DHT22;49442;45.640;13.812;2023-06-22T02:27:53;23.30;99.90
63313;DHT22;49442;45.640;13.812;2023-06-22T02:30:18;23.30;99.90
63313;DHT22;49442;45.640;13.812;2023-06-22T02:32:44;23.40;99.90
63313;DHT22;49442;45.640;13.812;2023-06-22T02:35:10;23.30;99.90
63313;DHT22;49442;45.640;13.812;2023-06-22T02:37:36;23.30;99.90
63313;DHT22;49442;45.640;13.812;2023-06-22T02:40:05;23.40;99.90
63313;DHT22;49442;45.640;13.812;2023-06-22T02:42:34;23.30;99.90
63313;DHT22;49442;45.640;13.812;2023-06-22T02:45:00;23.30;99.90
63313;DHT22;49442;45.640;13.812;2023-06-22T02:47:26;23.30;99.90
63313;DHT22;49442;45.640;13.812;2023-06-22T02:49:52;23.40;99.90
63313;DHT22;49442;45.640;13.812;2023-06-22T02:52:17;23.40;99.90
63313;DHT22;49442;45.640;13.812;2023-06-22T02:54:43;23.40;99.90
63313;DHT22;49442;45.640;13.812;2023-06-22T02:57:11;23.40;99.90
63313;DHT22;49442;45.640;13.812;2023-06-22T02:59:42;23.40;99.90
63313;DHT22;49442;45.640;13.812;2023-06-22T03:02:08;23.40;99.90
63313;DHT22;49442;45.640;13.812;2023-06-22T03:04:35;23.50;99.90
63313;DHT22;49442;45.640;13.812;2023-06-22T03:07:01;23.40;99.90
63313;DHT22;49442;45.640;13.812;2023-06-22T03:09:27;23.40;99.90
63313;DHT22;49442;45.640;13.812;2023-06-22T03:11:54;23.50;99.90
63313;DHT22;49442;45.640;13.812;2023-06-22T03:14:20;23.40;99.90
63313;DHT22;49442;45.640;13.812;2023-06-22T03:16:46;23.40;99.90
63313;DHT22;49442;45.640;13.812;2023-06-22T03:19:12;23.40;99.90
63313;DHT22;49442;45.640;13.812;2023-06-22T03:21:38;23.50;99.90
63313;DHT22;49442;45.640;13.812;2023-06-22T03:24:05;23.50;99.90
63313;DHT22;49442;45.640;13.812;2023-06-22T03:26:31;23.40;99.90
63313;DHT22;49442;45.640;13.812;2023-06-22T03:28:56;23.40;99.90
63313;DHT22;49442;45.640;13.812;2023-06-22T03:31:22;23.50;99.90
63313;DHT22;49442;45.640;13.812;2023-06-22T03:33:49;23.40;99.90
63313;DHT22;49442;45.640;13.812;2023-06-22T03:36:16;23.40;99.90
63313;DHT22;49442;45.640;13.812;2023-06-22T03:38:45;23.30;99.90
63313;DHT22;49442;45.640;13.812;2023-06-22T03:41:11;23.30;99.90
63313;DHT22;49442;45.640;13.812;2023-06-22T03:43:37;23.40;99.90
63313;DHT22;49442;45.640;13.812;2023-06-22T03:46:02;23.30;99.90
63313;DHT22;49442;45.640;13.812;2023-06-22T03:48:28;23.20;99.90
63313;DHT22;49442;45.640;13.812;2023-06-22T03:50:54;23.20;99.90
63313;DHT22;49442;45.640;13.812;2023-06-22T03:53:19;23.20;99.90
63313;DHT22;49442;45.640;13.812;2023-06-22T03:55:49;23.20;99.90
63313;DHT22;49442;45.640;13.812;2023-06-22T03:58:20;23.10;99.90
63313;DHT22;49442;45.640;13.812;2023-06-22T04:00:46;23.20;99.90
63313;DHT22;49442;45.640;13.812;2023-06-22T04:03:14;23.30;99.90
63313;DHT22;49442;45.640;13.812;2023-06-22T04:05:40;23.20;99.90
63313;DHT22;49442;45.640;13.812;2023-06-22T04:08:06;23.10;99.90
63313;DHT22;49442;45.640;13.812;2023-06-22T04:10:31;23.10;99.90
63313;DHT22;49442;45.640;13.812;2023-06-22T04:12:57;23.10;99.90
63313;DHT22;49442;45.640;13.812;2023-06-22T04:15:23;23.20;99.90
63313;DHT22;49442;45.640;13.812;2023-06-22T04:17:49;23.20;99.90
63313;DHT22;49442;45.640;13.812;2023-06-22T04:20:14;23.20;99.90
63313;DHT22;49442;45.640;13.812;2023-06-22T04:22:40;23.20;99.90
63313;DHT22;49442;45.640;13.812;2023-06-22T04:25:06;23.10;99.90
63313;DHT22;49442;45.640;13.812;2023-06-22T04:27:35;23.00;99.90
63313;DHT22;49442;45.640;13.812;2023-06-22T04:30:03;23.00;99.90
63313;DHT22;49442;45.640;13.812;2023-06-22T04:32:29;23.00;99.90
63313;DHT22;49442;45.640;13.812;2023-06-22T04:34:55;23.10;99.90
63313;DHT22;49442;45.640;13.812;2023-06-22T04:37:21;23.10;99.90
63313;DHT22;49442;45.640;13.812;2023-06-22T04:39:49;23.20;99.90
63313;DHT22;49442;45.640;13.812;2023-06-22T04:42:15;23.20;99.90
63313;DHT22;49442;45.640;13.812;2023-06-22T04:44:41;23.10;99.90
63313;DHT22;49442;45.640;13.812;2023-06-22T04:47:08;23.20;99.90
63313;DHT22;49442;45.640;13.812;2023-06-22T04:49:35;23.30;99.90
63313;DHT22;49442;45.640;13.812;2023-06-22T04:52:03;23.20;99.90
63313;DHT22;49442;45.640;13.812;2023-06-22T04:54:29;23.30;99.90
63313;DHT22;49442;45.640;13.812;2023-06-22T04:57:02;23.40;99.90
63313;DHT22;49442;45.640;13.812;2023-06-22T04:59:30;23.50;99.90
63313;DHT22;49442;45.640;13.812;2023-06-22T05:02:00;23.50;99.90
63313;DHT22;49442;45.640;13.812;2023-06-22T05:04:27;23.60;99.90
63313;DHT22;49442;45.640;13.812;2023-06-22T05:06:57;23.60;99.90
63313;DHT22;49442;45.640;13.812;2023-06-22T05:09:23;23.50;99.90
63313;DHT22;49442;45.640;13.812;2023-06-22T05:11:51;23.60;99.90
63313;DHT22;49442;45.640;13.812;2023-06-22T05:14:17;23.60;99.90
63313;DHT22;49442;45.640;13.812;2023-06-22T05:16:43;23.60;99.90
63313;DHT22;49442;45.640;13.812;2023-06-22T05:19:10;23.70;99.90
63313;DHT22;49442;45.640;13.812;2023-06-22T05:21:36;23.70;99.90
63313;DHT22;49442;45.640;13.812;2023-06-22T05:24:02;23.80;99.90
63313;DHT22;49442;45.640;13.812;2023-06-22T05:26:33;23.80;99.90
63313;DHT22;49442;45.640;13.812;2023-06-22T05:29:02;23.90;99.90
63313;DHT22;49442;45.640;13.812;2023-06-22T05:31:28;23.90;99.90
63313;DHT22;49442;45.640;13.812;2023-06-22T05:33:55;24.00;99.90
63313;DHT22;49442;45.640;13.812;2023-06-22T05:36:21;24.10;99.90
63313;DHT22;49442;45.640;13.812;2023-06-22T05:38:51;24.20;99.90
63313;DHT22;49442;45.640;13.812;2023-06-22T05:41:17;24.30;99.90
63313;DHT22;49442;45.640;13.812;2023-06-22T05:43:42;24.40;99.90
63313;DHT22;49442;45.640;13.812;2023-06-22T05:46:08;24.40;99.90
63313;DHT22;49442;45.640;13.812;2023-06-22T05:48:34;24.60;99.90
63313;DHT22;49442;45.640;13.812;2023-06-22T05:50:59;24.60;99.90
63313;DHT22;49442;45.640;13.812;2023-06-22T05:53:25;24.70;99.90
63313;DHT22;49442;45.640;13.812;2023-06-22T05:55:51;24.80;99.90
63313;DHT22;49442;45.640;13.812;2023-06-22T05:58:17;24.80;99.90
63313;DHT22;49442;45.640;13.812;2023-06-22T06:00:43;24.90;99.90
63313;DHT22;49442;45.640;13.812;2023-06-22T06:03:09;25.00;99.90
63313;DHT22;49442;45.640;13.812;2023-06-22T06:05:36;25.00;99.90
63313;DHT22;49442;45.640;13.812;2023-06-22T06:08:03;25.10;99.90
63313;DHT22;49442;45.640;13.812;2023-06-22T06:10:35;25.20;99.90
63313;DHT22;49442;45.640;13.812;2023-06-22T06:13:01;25.20;99.90
63313;DHT22;49442;45.640;13.812;2023-06-22T06:15:33;25.20;99.90
63313;DHT22;49442;45.640;13.812;2023-06-22T06:17:59;25.40;99.90
63313;DHT22;49442;45.640;13.812;2023-06-22T06:20:26;25.50;99.90
63313;DHT22;49442;45.640;13.812;2023-06-22T06:22:53;25.50;99.90
63313;DHT22;49442;45.640;13.812;2023-06-22T06:25:19;25.60;99.90
63313;DHT22;49442;45.640;13.812;2023-06-22T06:27:48;25.60;99.90
63313;DHT22;49442;45.640;13.812;2023-06-22T06:30:15;25.60;99.90
63313;DHT22;49442;45.640;13.812;2023-06-22T06:32:41;25.70;99.90
63313;DHT22;49442;45.640;13.812;2023-06-22T06:35:09;25.80;99.90
63313;DHT22;49442;45.640;13.812;2023-06-22T06:37:40;25.80;99.90
63313;DHT22;49442;45.640;13.812;2023-06-22T06:40:06;25.90;99.90
63313;DHT22;49442;45.640;13.812;2023-06-22T06:42:40;25.90;99.90
63313;DHT22;49442;45.640;13.812;2023-06-22T06:45:07;25.90;99.90
63313;DHT22;49442;45.640;13.812;2023-06-22T06:47:33;26.00;99.90
63313;DHT22;49442;45.640;13.812;2023-06-22T06:49:59;26.00;99.90
63313;DHT22;49442;45.640;13.812;2023-06-22T06:52:25;26.10;99.90
63313;DHT22;49442;45.640;13.812;2023-06-22T06:54:51;26.20;99.90
63313;DHT22;49442;45.640;13.812;2023-06-22T06:57:18;26.20;99.90
63313;DHT22;49442;45.640;13.812;2023-06-22T06:59:44;26.20;99.90
63313;DHT22;49442;45.640;13.812;2023-06-22T07:02:09;26.20;99.90
63313;DHT22;49442;45.640;13.812;2023-06-22T07:04:35;26.40;99.90
63313;DHT22;49442;45.640;13.812;2023-06-22T07:07:02;26.40;99.90
63313;DHT22;49442;45.640;13.812;2023-06-22T07:09:28;26.40;99.90
63313;DHT22;49442;45.640;13.812;2023-06-22T07:11:53;26.40;99.90
63313;DHT22;49442;45.640;13.812;2023-06-22T07:14:19;26.50;99.90
63313;DHT22;49442;45.640;13.812;2023-06-22T07:16:44;26.50;99.90
63313;DHT22;49442;45.640;13.812;2023-06-22T07:19:12;26.60;99.90
63313;DHT22;49442;45.640;13.812;2023-06-22T07:21:38;26.60;99.90
63313;DHT22;49442;45.640;13.812;2023-06-22T07:24:05;26.70;99.90
63313;DHT22;49442;45.640;13.812;2023-06-22T07:26:31;26.70;99.90
63313;DHT22;49442;45.640;13.812;2023-06-22T07:28:57;26.70;99.90
63313;DHT22;49442;45.640;13.812;2023-06-22T07:31:26;26.60;99.90
63313;DHT22;49442;45.640;13.812;2023-06-22T07:33:52;26.80;99.90
63313;DHT22;49442;45.640;13.812;2023-06-22T07:36:18;26.90;99.90
63313;DHT22;49442;45.640;13.812;2023-06-22T07:38:44;26.90;99.90
63313;DHT22;49442;45.640;13.812;2023-06-22T07:41:10;26.90;99.90
63313;DHT22;49442;45.640;13.812;2023-06-22T07:43:35;27.00;99.90
63313;DHT22;49442;45.640;13.812;2023-06-22T07:46:05;27.10;99.90
63313;DHT22;49442;45.640;13.812;2023-06-22T07:48:31;27.10;99.90
63313;DHT22;49442;45.640;13.812;2023-06-22T07:50:56;27.20;99.90
63313;DHT22;49442;45.640;13.812;2023-06-22T07:53:22;27.30;99.90
63313;DHT22;49442;45.640;13.812;2023-06-22T07:55:49;27.30;99.90
63313;DHT22;49442;45.640;13.812;2023-06-22T07:58:15;27.40;99.90
63313;DHT22;49442;45.640;13.812;2023-06-22T08:00:41;27.20;99.90
63313;DHT22;49442;45.640;13.812;2023-06-22T08:03:06;27.20;99.90
63313;DHT22;49442;45.640;13.812;2023-06-22T08:05:32;27.10;99.90
63313;DHT22;49442;45.640;13.812;2023-06-22T08:07:58;27.30;99.90
63313;DHT22;49442;45.640;13.812;2023-06-22T08:10:24;27.50;99.90
63313;DHT22;49442;45.640;13.812;2023-06-22T08:12:51;27.40;99.90
63313;DHT22;49442;45.640;13.812;2023-06-22T08:15:18;27.30;99.90
63313;DHT22;49442;45.640;13.812;2023-06-22T08:17:44;27.30;99.90
63313;DHT22;49442;45.640;13.812;2023-06-22T08:20:11;27.40;99.90
63313;DHT22;49442;45.640;13.812;2023-06-22T08:22:38;27.50;99.90
63313;DHT22;49442;45.640;13.812;2023-06-22T08:25:04;27.70;99.90
63313;DHT22;49442;45.640;13.812;2023-06-22T08:27:30;27.80;99.90
63313;DHT22;49442;45.640;13.812;2023-06-22T08:29:59;27.80;99.90
63313;DHT22;49442;45.640;13.812;2023-06-22T08:32:27;27.90;99.90
63313;DHT22;49442;45.640;13.812;2023-06-22T08:34:54;27.90;99.90
63313;DHT22;49442;45.640;13.812;2023-06-22T08:37:20;27.90;99.90
63313;DHT22;49442;45.640;13.812;2023-06-22T08:39:45;28.00;99.90
63313;DHT22;49442;45.640;13.812;2023-06-22T08:42:12;28.00;99.90
63313;DHT22;49442;45.640;13.812;2023-06-22T08:44:37;27.90;99.90
63313;DHT22;49442;45.640;13.812;2023-06-22T08:47:03;27.90;99.90
63313;DHT22;49442;45.640;13.812;2023-06-22T08:49:29;27.90;99.90
63313;DHT22;49442;45.640;13.812;2023-06-22T08:51:55;28.20;99.90
63313;DHT22;49442;45.640;13.812;2023-06-22T08:54:22;28.40;99.90
63313;DHT22;49442;45.640;13.812;2023-06-22T08:56:48;28.60;99.90
63313;DHT22;49442;45.640;13.812;2023-06-22T08:59:13;28.60;99.90
63313;DHT22;49442;45.640;13.812;2023-06-22T09:01:39;28.70;99.90
63313;DHT22;49442;45.640;13.812;2023-06-22T09:04:05;28.70;99.90
63313;DHT22;49442;45.640;13.812;2023-06-22T09:06:32;28.80;99.90
63313;DHT22;49442;45.640;13.812;2023-06-22T09:08:58;28.70;99.90
63313;DHT22;49442;45.640;13.812;2023-06-22T09:11:26;28.90;99.90
63313;DHT22;49442;45.640;13.812;2023-06-22T09:13:52;29.00;99.90
63313;DHT22;49442;45.640;13.812;2023-06-22T09:16:19;29.10;99.90
63313;DHT22;49442;45.640;13.812;2023-06-22T09:18:48;29.10;99.90
63313;DHT22;49442;45.640;13.812;2023-06-22T09:21:14;29.20;99.90
63313;DHT22;49442;45.640;13.812;2023-06-22T09:23:40;29.20;99.90
63313;DHT22;49442;45.640;13.812;2023-06-22T09:26:05;29.30;99.90
63313;DHT22;49442;45.640;13.812;2023-06-22T09:28:31;29.20;99.90
63313;DHT22;49442;45.640;13.812;2023-06-22T09:30:58;29.20;99.90
63313;DHT22;49442;45.640;13.812;2023-06-22T09:33:25;29.20;99.90
63313;DHT22;49442;45.640;13.812;2023-06-22T09:35:51;29.40;99.90
63313;DHT22;49442;45.640;13.812;2023-06-22T09:38:17;29.50;99.90
63313;DHT22;49442;45.640;13.812;2023-06-22T09:40:42;29.50;99.90
63313;DHT22;49442;45.640;13.812;2023-06-22T09:43:08;29.60;99.90
63313;DHT22;49442;45.640;13.812;2023-06-22T09:45:34;29.60;99.90
63313;DHT22;49442;45.640;13.812;2023-06-22T09:48:00;29.60;99.90
63313;DHT22;49442;45.640;13.812;2023-06-22T09:50:25;29.60;99.90
63313;DHT22;49442;45.640;13.812;2023-06-22T09:52:51;29.40;99.90
63313;DHT22;49442;45.640;13.812;2023-06-22T09:55:21;29.40;99.90
63313;DHT22;49442;45.640;13.812;2023-06-22T09:57:47;29.50;99.90
63313;DHT22;49442;45.640;13.812;2023-06-22T10:00:13;29.60;99.90
63313;DHT22;49442;45.640;13.812;2023-06-22T10:02:41;29.80;99.90
63313;DHT22;49442;45.640;13.812;2023-06-22T10:05:07;29.90;99.90
63313;DHT22;49442;45.640;13.812;2023-06-22T10:07:33;29.90;99.90
63313;DHT22;49442;45.640;13.812;2023-06-22T10:09:59;30.00;99.90
63313;DHT22;49442;45.640;13.812;2023-06-22T10:12:27;30.00;99.90
63313;DHT22;49442;45.640;13.812;2023-06-22T10:14:53;30.00;99.90
63313;DHT22;49442;45.640;13.812;2023-06-22T10:17:18;30.10;99.90
63313;DHT22;49442;45.640;13.812;2023-06-22T10:19:44;30.20;99.90
63313;DHT22;49442;45.640;13.812;2023-06-22T10:22:10;30.20;99.90
63313;DHT22;49442;45.640;13.812;2023-06-22T10:24:35;29.90;99.90
63313;DHT22;49442;45.640;13.812;2023-06-22T10:27:03;29.90;99.90
63313;DHT22;49442;45.640;13.812;2023-06-22T10:29:28;30.10;99.90
63313;DHT22;49442;45.640;13.812;2023-06-22T10:31:54;30.30;99.90
63313;DHT22;49442;45.640;13.812;2023-06-22T10:34:19;30.30;99.90
63313;DHT22;49442;45.640;13.812;2023-06-22T10:36:45;30.30;99.90
63313;DHT22;49442;45.640;13.812;2023-06-22T10:39:13;30.40;99.90
63313;DHT22;49442;45.640;13.812;2023-06-22T10:41:40;30.40;99.90
63313;DHT22;49442;45.640;13.812;2023-06-22T10:44:06;30.40;99.90
63313;DHT22;49442;45.640;13.812;2023-06-22T10:46:31;30.40;99.90
63313;DHT22;49442;45.640;13.812;2023-06-22T10:48:57;30.40;99.90
63313;DHT22;49442;45.640;13.812;2023-06-22T10:51:24;30.50;99.90
63313;DHT22;49442;45.640;13.812;2023-06-22T10:53:50;30.40;99.90
63313;DHT22;49442;45.640;13.812;2023-06-22T10:56:17;30.50;99.90
63313;DHT22;49442;45.640;13.812;2023-06-22T10:58:44;30.50;99.90
63313;DHT22;49442;45.640;13.812;2023-06-22T11:01:10;30.60;99.90
63313;DHT22;49442;45.640;13.812;2023-06-22T11:03:35;30.60;99.90
63313;DHT22;49442;45.640;13.812;2023-06-22T11:06:01;30.70;99.90
63313;DHT22;49442;45.640;13.812;2023-06-22T11:08:27;30.60;99.90
63313;DHT22;49442;45.640;13.812;2023-06-22T11:10:52;30.60;99.90
63313;DHT22;49442;45.640;13.812;2023-06-22T11:13:18;30.70;99.90
63313;DHT22;49442;45.640;13.812;2023-06-22T11:15:44;30.80;99.90
63313;DHT22;49442;45.640;13.812;2023-06-22T11:18:09;30.70;99.90
63313;DHT22;49442;45.640;13.812;2023-06-22T11:20:35;30.60;99.90
63313;DHT22;49442;45.640;13.812;2023-06-22T11:23:04;30.60;99.90
63313;DHT22;49442;45.640;13.812;2023-06-22T11:25:32;30.70;99.90
63313;DHT22;49442;45.640;13.812;2023-06-22T11:27:57;30.70;99.90
63313;DHT22;49442;45.640;13.812;2023-06-22T11:30:23;30.70;99.90
63313;DHT22;49442;45.640;13.812;2023-06-22T11:32:49;30.70;99.90
63313;DHT22;49442;45.640;13.812;2023-06-22T11:35:14;30.70;99.90
63313;DHT22;49442;45.640;13.812;2023-06-22T11:37:40;30.70;99.90
63313;DHT22;49442;45.640;13.812;2023-06-22T11:40:06;30.60;99.90
63313;DHT22;49442;45.640;13.812;2023-06-22T11:42:34;30.60;99.90
63313;DHT22;49442;45.640;13.812;2023-06-22T11:45:00;30.60;99.90
63313;DHT22;49442;45.640;13.812;2023-06-22T11:47:27;30.70;99.90
63313;DHT22;49442;45.640;13.812;2023-06-22T11:49:52;30.70;99.90
63313;DHT22;49442;45.640;13.812;2023-06-22T11:52:18;30.80;99.90
63313;DHT22;49442;45.640;13.812;2023-06-22T11:54:45;30.80;99.90
63313;DHT22;49442;45.640;13.812;2023-06-22T11:57:11;30.80;99.90
63313;DHT22;49442;45.640;13.812;2023-06-22T11:59:36;30.70;99.90
63313;DHT22;49442;45.640;13.812;2023-06-22T12:02:02;30.70;99.90
63313;DHT22;49442;45.640;13.812;2023-06-22T12:04:29;30.70;99.90
63313;DHT22;49442;45.640;13.812;2023-06-22T12:06:55;30.60;99.90
63313;DHT22;49442;45.640;13.812;2023-06-22T12:09:21;30.50;99.90
63313;DHT22;49442;45.640;13.812;2023-06-22T12:11:46;30.50;99.90
63313;DHT22;49442;45.640;13.812;2023-06-22T12:14:12;30.40;99.90
63313;DHT22;49442;45.640;13.812;2023-06-22T12:16:37;30.20;99.90
63313;DHT22;49442;45.640;13.812;2023-06-22T12:19:04;30.30;99.90
63313;DHT22;49442;45.640;13.812;2023-06-22T12:21:29;30.40;99.90
63313;DHT22;49442;45.640;13.812;2023-06-22T12:23:55;30.50;99.90
63313;DHT22;49442;45.640;13.812;2023-06-22T12:26:21;30.60;99.90
63313;DHT22;49442;45.640;13.812;2023-06-22T12:28:47;30.80;99.90
63313;DHT22;49442;45.640;13.812;2023-06-22T12:31:14;30.80;99.40
63313;DHT22;49442;45.640;13.812;2023-06-22T12:33:39;30.80;99.40
63313;DHT22;49442;45.640;13.812;2023-06-22T12:36:05;30.90;99.20
63313;DHT22;49442;45.640;13.812;2023-06-22T12:38:31;31.00;99.00
63313;DHT22;49442;45.640;13.812;2023-06-22T12:40:56;30.90;99.60
63313;DHT22;49442;45.640;13.812;2023-06-22T12:43:22;31.00;97.70
63313;DHT22;49442;45.640;13.812;2023-06-22T12:45:48;31.10;99.20
63313;DHT22;49442;45.640;13.812;2023-06-22T12:48:13;31.00;99.20
63313;DHT22;49442;45.640;13.812;2023-06-22T12:50:39;31.00;98.70
63313;DHT22;49442;45.640;13.812;2023-06-22T12:53:05;31.10;98.10
63313;DHT22;49442;45.640;13.812;2023-06-22T12:55:31;31.10;97.60
63313;DHT22;49442;45.640;13.812;2023-06-22T12:57:57;31.10;98.60
63313;DHT22;49442;45.640;13.812;2023-06-22T13:00:23;31.10;98.40
63313;DHT22;49442;45.640;13.812;2023-06-22T13:02:49;31.10;98.50
63313;DHT22;49442;45.640;13.812;2023-06-22T13:05:15;30.80;98.70
63313;DHT22;49442;45.640;13.812;2023-06-22T13:07:40;30.90;99.30
63313;DHT22;49442;45.640;13.812;2023-06-22T13:10:08;30.90;96.60
63313;DHT22;49442;45.640;13.812;2023-06-22T13:12:34;30.90;96.80
63313;DHT22;49442;45.640;13.812;2023-06-22T13:15:00;30.80;97.70
63313;DHT22;49442;45.640;13.812;2023-06-22T13:17:25;30.90;98.50
63313;DHT22;49442;45.640;13.812;2023-06-22T13:19:51;31.00;98.90
63313;DHT22;49442;45.640;13.812;2023-06-22T13:22:31;31.00;97.20
63313;DHT22;49442;45.640;13.812;2023-06-22T13:24:57;31.00;97.70
63313;DHT22;49442;45.640;13.812;2023-06-22T13:27:23;31.00;98.10
63313;DHT22;49442;45.640;13.812;2023-06-22T13:29:50;30.90;96.40
63313;DHT22;49442;45.640;13.812;2023-06-22T13:32:15;30.80;96.00
63313;DHT22;49442;45.640;13.812;2023-06-22T13:34:42;31.10;99.10
63313;DHT22;49442;45.640;13.812;2023-06-22T13:37:08;31.10;96.70
63313;DHT22;49442;45.640;13.812;2023-06-22T13:39:33;31.20;97.70
63313;DHT22;49442;45.640;13.812;2023-06-22T13:41:59;31.20;97.40
63313;DHT22;49442;45.640;13.812;2023-06-22T13:44:24;31.20;95.90
63313;DHT22;49442;45.640;13.812;2023-06-22T13:46:54;31.20;97.60
63313;DHT22;49442;45.640;13.812;2023-06-22T13:49:20;31.30;96.70
63313;DHT22;49442;45.640;13.812;2023-06-22T13:51:47;31.10;96.10
63313;DHT22;49442;45.640;13.812;2023-06-22T13:54:13;31.10;97.80
63313;DHT22;49442;45.640;13.812;2023-06-22T13:56:39;31.30;97.50
63313;DHT22;49442;45.640;13.812;2023-06-22T13:59:05;31.30;96.60
63313;DHT22;49442;45.640;13.812;2023-06-22T14:01:32;31.30;96.60
63313;DHT22;49442;45.640;13.812;2023-06-22T14:03:57;31.30;95.60
63313;DHT22;49442;45.640;13.812;2023-06-22T14:06:23;31.20;96.80
63313;DHT22;49442;45.640;13.812;2023-06-22T14:08:49;31.30;97.80
63313;DHT22;49442;45.640;13.812;2023-06-22T14:11:16;31.40;96.10
63313;DHT22;49442;45.640;13.812;2023-06-22T14:13:42;31.30;96.40
63313;DHT22;49442;45.640;13.812;2023-06-22T14:16:08;31.10;95.80
63313;DHT22;49442;45.640;13.812;2023-06-22T14:18:34;31.10;95.70
63313;DHT22;49442;45.640;13.812;2023-06-22T14:20:59;31.10;95.00
63313;DHT22;49442;45.640;13.812;2023-06-22T14:23:26;31.20;95.50
63313;DHT22;49442;45.640;13.812;2023-06-22T14:25:52;31.10;95.70
63313;DHT22;49442;45.640;13.812;2023-06-22T14:28:18;31.20;96.70
63313;DHT22;49442;45.640;13.812;2023-06-22T14:30:44;31.30;95.30
63313;DHT22;49442;45.640;13.812;2023-06-22T14:33:09;31.30;94.90
63313;DHT22;49442;45.640;13.812;2023-06-22T14:35:35;31.40;95.10
63313;DHT22;49442;45.640;13.812;2023-06-22T14:38:01;31.30;95.30
63313;DHT22;49442;45.640;13.812;2023-06-22T14:40:26;31.30;95.30
63313;DHT22;49442;45.640;13.812;2023-06-22T14:42:52;31.30;93.90
63313;DHT22;49442;45.640;13.812;2023-06-22T14:45:18;31.10;94.30
63313;DHT22;49442;45.640;13.812;2023-06-22T14:47:43;31.20;95.50
63313;DHT22;49442;45.640;13.812;2023-06-22T14:50:09;31.20;95.00
63313;DHT22;49442;45.640;13.812;2023-06-22T14:52:35;31.00;94.50
63313;DHT22;49442;45.640;13.812;2023-06-22T14:55:00;31.10;95.70
63313;DHT22;49442;45.640;13.812;2023-06-22T14:57:26;31.10;93.90
63313;DHT22;49442;45.640;13.812;2023-06-22T14:59:52;31.10;94.90
63313;DHT22;49442;45.640;13.812;2023-06-22T15:02:17;31.20;94.50
63313;DHT22;49442;45.640;13.812;2023-06-22T15:04:43;31.30;94.90
63313;DHT22;49442;45.640;13.812;2023-06-22T15:07:09;31.30;94.50
63313;DHT22;49442;45.640;13.812;2023-06-22T15:09:34;31.30;94.10
63313;DHT22;49442;45.640;13.812;2023-06-22T15:12:00;31.20;94.60
63313;DHT22;49442;45.640;13.812;2023-06-22T15:14:28;31.10;96.10
63313;DHT22;49442;45.640;13.812;2023-06-22T15:16:55;31.20;96.20
63313;DHT22;49442;45.640;13.812;2023-06-22T15:19:20;31.30;96.20